createdAt,value
2023-05-01T00:00:00.416Z,5.6
2023-05-01T00:15:00.412Z,5.3
2023-05-01T00:30:00.469Z,5.1
2023-05-01T00:45:00.636Z,5.0
2023-05-01T01:00:00.526Z,4.9
2023-05-01T01:15:00.400Z,4.8
2023-05-01T01:30:00.466Z,4.7
2023-05-01T01:45:00.423Z,4.6
2023-05-01T02:00:00.389Z,4.6
2023-05-01T02:15:00.382Z,4.5
2023-05-01T02:30:00.445Z,4.4
2023-05-01T02:45:00.384Z,4.2
2023-05-01T03:00:00.407Z,4.2
2023-05-01T03:15:00.470Z,4.2
2023-05-01T03:30:00.505Z,4.2
2023-05-01T03:45:00.413Z,4.3
2023-05-01T04:00:00.435Z,4.4
2023-05-01T04:15:00.423Z,4.6
2023-05-01T04:30:00.798Z,4.9
2023-05-01T04:45:00.403Z,5.1
2023-05-01T05:00:00.405Z,5.3
2023-05-01T05:15:00.404Z,5.7
2023-05-01T05:30:00.411Z,6.0
2023-05-01T05:45:00.601Z,6.3
2023-05-01T06:00:00.485Z,6.8
2023-05-01T06:15:00.442Z,7.3
2023-05-01T06:30:00.421Z,8.2
2023-05-01T06:45:00.713Z,9.4
2023-05-01T07:00:00.451Z,10.4
2023-05-01T07:15:00.408Z,11.4
2023-05-01T07:30:00.410Z,12.1
2023-05-01T07:45:00.401Z,12.7
2023-05-01T08:00:00.468Z,13.5
2023-05-01T08:15:00.487Z,13.9
2023-05-01T08:30:00.686Z,14.2
2023-05-01T08:45:00.732Z,14.6
2023-05-01T09:00:00.710Z,15.1
2023-05-01T09:15:00.680Z,15.2
2023-05-01T09:30:00.737Z,15.8
2023-05-01T09:45:00.712Z,15.6
2023-05-01T10:00:00.716Z,15.8
2023-05-01T10:15:05.609Z,15.6
2023-05-01T10:30:00.685Z,15.6
2023-05-01T10:45:00.840Z,15.9
2023-05-01T11:00:00.715Z,16.2
2023-05-01T11:15:00.696Z,16.2
2023-05-01T11:30:00.696Z,16.2
2023-05-01T11:45:00.700Z,16.2
2023-05-01T12:00:00.758Z,16.3
2023-05-01T12:15:00.887Z,16.5
2023-05-01T12:30:00.754Z,16.7
2023-05-01T12:45:00.974Z,17.0
2023-05-01T13:00:01.074Z,16.9
2023-05-01T13:15:00.761Z,17.0
2023-05-01T13:30:01.227Z,17.0
2023-05-01T13:45:00.742Z,17.0
2023-05-01T14:00:00.672Z,17.1
2023-05-01T14:15:01.179Z,17.2
2023-05-01T14:30:00.778Z,17.3
2023-05-01T14:45:00.790Z,17.4
2023-05-01T15:00:00.772Z,17.4
2023-05-01T15:15:00.815Z,17.2
2023-05-01T15:30:00.828Z,17.0
2023-05-01T15:45:00.883Z,16.8
2023-05-01T16:00:01.235Z,16.8
2023-05-01T16:15:00.706Z,16.7
2023-05-01T16:30:01.005Z,16.6
2023-05-01T16:45:00.842Z,16.5
2023-05-01T17:00:01.012Z,16.4
2023-05-01T17:15:00.691Z,16.2
2023-05-01T17:30:01.134Z,16.0
2023-05-01T17:45:00.695Z,15.7
2023-05-01T18:00:01.163Z,15.2
2023-05-01T18:15:00.694Z,14.7
2023-05-01T18:30:00.983Z,14.3
2023-05-01T18:45:00.767Z,14.0
2023-05-01T19:00:01.078Z,13.7
2023-05-01T19:15:00.714Z,13.5
2023-05-01T19:30:01.517Z,13.4
2023-05-01T19:45:00.721Z,13.2
2023-05-01T20:00:01.178Z,13.1
2023-05-01T20:15:00.686Z,12.9
2023-05-01T20:30:00.920Z,12.7
2023-05-01T20:45:00.766Z,12.6
2023-05-01T21:00:01.195Z,12.3
2023-05-01T21:15:00.691Z,12.1
2023-05-01T21:30:00.979Z,12.0
2023-05-01T21:45:00.710Z,12.0
2023-05-01T22:00:00.974Z,11.9
2023-05-01T22:15:00.731Z,11.9
2023-05-01T22:30:01.154Z,11.8
2023-05-01T22:45:00.711Z,11.8
2023-05-01T23:00:01.123Z,11.7
2023-05-01T23:15:00.778Z,11.6
2023-05-01T23:30:01.081Z,11.4
2023-05-01T23:45:00.686Z,11.4
